createdAt,value
2023-02-13T00:02:24.034Z,100078.06
2023-02-13T00:04:56.127Z,100069.54
2023-02-13T00:07:28.287Z,100059.37
2023-02-13T00:10:00.638Z,100050.00
2023-02-13T00:12:33.281Z,100052.64
2023-02-13T00:15:06.515Z,100039.16
2023-02-13T00:17:38.970Z,100035.75
2023-02-13T00:20:13.004Z,100037.54
2023-02-13T00:22:45.153Z,100024.82
2023-02-13T00:25:17.402Z,100030.82
2023-02-13T00:27:49.546Z,100018.92
2023-02-13T00:30:22.310Z,100014.77
2023-02-13T00:32:54.820Z,100008.81
2023-02-13T00:35:28.793Z,100013.27
2023-02-13T00:38:01.416Z,100010.64
2023-02-13T00:40:33.414Z,100002.11
2023-02-13T00:43:05.506Z,99998.73
2023-02-13T00:45:38.708Z,99989.38
2023-02-13T00:48:10.703Z,99984.28
2023-02-13T00:50:42.757Z,99970.66
2023-02-13T00:53:15.087Z,99963.85
2023-02-13T00:55:47.019Z,99965.61
2023-02-13T00:58:20.027Z,99975.03
2023-02-13T01:00:53.546Z,99972.47
2023-02-13T01:03:26.170Z,99970.81
2023-02-13T01:05:59.076Z,99977.70
2023-02-13T01:08:31.670Z,99971.73
2023-02-13T01:11:04.001Z,99967.53
2023-02-13T01:13:36.256Z,99962.41
2023-02-13T01:16:08.707Z,99959.88
2023-02-13T01:18:40.923Z,99964.16
2023-02-13T01:21:18.933Z,99957.35
2023-02-13T01:23:51.767Z,99957.39
2023-02-13T01:26:25.091Z,99958.24
2023-02-13T01:28:58.233Z,99959.26
2023-02-13T01:31:30.187Z,99945.51
2023-02-13T01:34:02.196Z,99936.22
2023-02-13T01:36:34.221Z,99930.17
2023-02-13T01:39:06.477Z,99919.91
2023-02-13T01:41:39.132Z,99913.11
2023-02-13T01:44:48.448Z,99917.37
2023-02-13T01:47:23.456Z,99909.73
2023-02-13T01:50:01.293Z,99904.62
2023-02-13T01:52:35.143Z,99896.94
2023-02-13T01:55:08.238Z,99888.39
2023-02-13T01:57:44.668Z,99884.98
2023-02-13T02:00:17.784Z,99884.15
2023-02-13T02:02:51.967Z,99874.71
2023-02-13T02:05:28.739Z,99868.73
2023-02-13T02:08:03.528Z,99870.45
2023-02-13T02:10:35.794Z,99872.19
2023-02-13T02:13:18.868Z,99877.34
2023-02-13T02:15:51.985Z,99864.51
2023-02-13T02:18:26.035Z,99859.42
2023-02-13T02:21:18.844Z,99864.53
2023-02-13T02:24:09.163Z,99861.98
2023-02-13T02:26:56.256Z,99845.77
2023-02-13T02:29:47.810Z,99851.78
2023-02-13T02:32:22.779Z,99849.23
2023-02-13T02:35:01.060Z,99843.25
2023-02-13T02:37:42.668Z,99833.87
2023-02-13T02:40:23.353Z,99839.08
2023-02-13T02:43:05.783Z,99826.23
2023-02-13T02:45:40.764Z,99832.20
2023-02-13T02:48:37.815Z,99817.67
2023-02-13T02:51:12.941Z,99816.80
2023-02-13T02:53:53.950Z,99808.28
2023-02-13T02:56:29.991Z,99810.84
2023-02-13T02:59:26.294Z,99804.91
2023-02-13T03:02:18.030Z,99806.61
2023-02-13T03:05:13.579Z,99799.77
2023-02-13T03:07:45.769Z,99800.63
2023-02-13T03:10:41.036Z,99791.25
2023-02-13T03:13:21.675Z,99788.68
2023-02-13T03:16:14.110Z,99791.25
2023-02-13T03:19:06.836Z,99786.16
2023-02-13T03:22:13.642Z,99779.33
2023-02-13T03:24:58.720Z,99780.14
2023-02-13T03:28:09.623Z,99772.48
2023-02-13T03:30:47.945Z,99762.22
2023-02-13T03:33:34.811Z,99752.81
2023-02-13T03:36:43.649Z,99756.27
2023-02-13T03:39:21.783Z,99745.14
2023-02-13T03:42:02.978Z,99725.50
2023-02-13T03:44:41.765Z,99722.06
2023-02-13T03:47:16.040Z,99715.23
2023-02-13T03:50:08.595Z,99715.25
2023-02-13T03:52:58.690Z,99718.66
2023-02-13T03:55:54.036Z,99715.25
2023-02-13T03:58:47.059Z,99717.84
2023-02-13T04:01:22.228Z,99728.08
2023-02-13T04:04:13.736Z,99717.83
2023-02-13T04:07:01.065Z,99723.83
2023-02-13T04:09:36.074Z,99728.10
2023-02-13T04:12:11.434Z,99705.86
2023-02-13T04:14:52.586Z,99708.42
2023-02-13T04:17:30.734Z,99705.00
2023-02-13T04:20:03.319Z,99698.17
2023-02-13T04:22:35.345Z,99693.02
2023-02-13T04:25:08.365Z,99687.03
2023-02-13T04:27:41.250Z,99671.61
2023-02-13T04:30:15.517Z,99662.20
2023-02-13T04:32:48.647Z,99656.20
2023-02-13T04:35:21.313Z,99659.64
2023-02-13T04:37:54.420Z,99653.61
2023-02-13T04:40:27.746Z,99651.05
2023-02-13T04:43:00.785Z,99636.50
2023-02-13T04:45:38.852Z,99646.78
2023-02-13T04:48:12.041Z,99639.05
2023-02-13T04:50:45.464Z,99634.77
2023-02-13T04:53:17.642Z,99629.61
2023-02-13T04:55:50.014Z,99634.74
2023-02-13T04:58:23.279Z,99631.27
2023-02-13T05:00:56.126Z,99617.59
2023-02-13T05:03:29.928Z,99606.45
2023-02-13T05:06:02.868Z,99612.45
2023-02-13T05:08:35.559Z,99606.44
2023-02-13T05:11:08.798Z,99606.41
2023-02-13T05:13:42.752Z,99590.11
2023-02-13T05:16:15.412Z,99583.27
2023-02-13T05:18:48.026Z,99594.38
2023-02-13T05:21:38.288Z,99594.38
2023-02-13T05:24:10.973Z,99601.20
2023-02-13T05:26:43.569Z,99593.48
2023-02-13T05:29:19.413Z,99584.90
2023-02-13T05:31:56.614Z,99583.20
2023-02-13T05:34:30.770Z,99577.13
2023-02-13T05:37:03.059Z,99566.03
2023-02-13T05:39:35.060Z,99565.95
2023-02-13T05:42:09.378Z,99574.58
2023-02-13T05:44:43.419Z,99569.37
2023-02-13T05:47:17.176Z,99572.80
2023-02-13T05:49:49.787Z,99571.93
2023-02-13T05:52:21.906Z,99575.36
2023-02-13T05:54:54.550Z,99578.70
2023-02-13T05:57:27.871Z,99575.31
2023-02-13T05:59:59.980Z,99578.70
2023-02-13T06:02:33.869Z,99573.61
2023-02-13T06:05:06.705Z,99565.02
2023-02-13T06:07:39.127Z,99575.23
2023-02-13T06:10:12.435Z,99572.73
2023-02-13T06:12:45.539Z,99562.43
2023-02-13T06:15:17.947Z,99570.95
2023-02-13T06:17:50.323Z,99571.83
2023-02-13T06:20:22.658Z,99570.09
2023-02-13T06:22:55.368Z,99568.37
2023-02-13T06:25:28.150Z,99564.05
2023-02-13T06:28:00.813Z,99569.13
2023-02-13T06:30:34.619Z,99572.50
2023-02-13T06:33:08.043Z,99569.02
2023-02-13T06:35:40.986Z,99565.44
2023-02-13T06:38:13.809Z,99565.42
2023-02-13T06:40:48.293Z,99552.48
2023-02-13T06:43:22.058Z,99544.74
2023-02-13T06:45:55.059Z,99538.62
2023-02-13T06:48:29.290Z,99528.34
2023-02-13T06:51:03.134Z,99539.52
2023-02-13T06:53:35.350Z,99533.47
2023-02-13T06:56:08.077Z,99529.99
2023-02-13T06:58:40.520Z,99529.05
2023-02-13T07:01:12.972Z,99527.37
2023-02-13T07:03:45.813Z,99517.12
2023-02-13T07:06:22.286Z,99514.55
2023-02-13T07:08:56.102Z,99520.56
2023-02-13T07:11:28.752Z,99520.55
2023-02-13T07:14:01.651Z,99511.06
2023-02-13T07:16:34.526Z,99516.18
2023-02-13T07:19:07.424Z,99501.58
2023-02-13T07:21:39.775Z,99497.15
2023-02-13T07:24:13.100Z,99502.27
2023-02-13T07:26:45.272Z,99497.90
2023-02-13T07:29:18.120Z,99485.60
2023-02-13T07:31:50.946Z,99482.06
2023-02-13T07:34:24.451Z,99481.14
2023-02-13T07:36:56.691Z,99475.91
2023-02-13T07:39:29.335Z,99480.90
2023-02-13T07:42:05.415Z,99473.08
2023-02-13T07:44:37.718Z,99466.19
2023-02-13T07:47:10.889Z,99465.12
2023-02-13T07:49:44.729Z,99461.58
2023-02-13T07:52:17.936Z,99456.59
2023-02-13T07:54:51.685Z,99456.59
2023-02-13T07:57:24.182Z,99461.02
2023-02-13T07:59:57.595Z,99463.66
2023-02-13T08:02:30.935Z,99462.75
2023-02-13T08:05:03.297Z,99460.94
2023-02-13T08:07:36.176Z,99455.73
2023-02-13T08:10:27.757Z,99457.36
2023-02-13T08:13:00.178Z,99452.11
2023-02-13T08:15:32.436Z,99452.83
2023-02-13T08:18:04.859Z,99444.92
2023-02-13T08:20:37.184Z,99447.41
2023-02-13T08:23:12.531Z,99434.38
2023-02-13T08:25:45.153Z,99438.66
2023-02-13T08:28:18.750Z,99433.42
2023-02-13T08:30:51.479Z,99431.73
2023-02-13T08:33:25.158Z,99430.80
2023-02-13T08:35:57.631Z,99414.42
2023-02-13T08:38:31.258Z,99412.33
2023-02-13T08:41:03.672Z,99399.67
2023-02-13T08:43:35.998Z,99402.28
2023-02-13T08:46:08.147Z,99403.97
2023-02-13T08:48:40.672Z,99401.39
2023-02-13T08:51:15.284Z,99395.42
2023-02-13T08:53:48.630Z,99391.05
2023-02-13T08:56:21.258Z,99385.86
2023-02-13T08:58:53.662Z,99382.36
2023-02-13T09:01:26.474Z,99386.56
2023-02-13T09:03:59.135Z,99381.23
2023-02-13T09:06:32.742Z,99382.13
2023-02-13T09:09:06.865Z,99384.63
2023-02-13T09:11:39.647Z,99384.61
2023-02-13T09:14:12.115Z,99387.45
2023-02-13T09:16:45.479Z,99383.09
2023-02-13T09:19:18.028Z,99371.94
2023-02-13T09:21:50.034Z,99370.78
2023-02-13T09:24:22.213Z,99366.64
2023-02-13T09:26:54.225Z,99376.91
2023-02-13T09:29:28.649Z,99360.58
2023-02-13T09:32:01.145Z,99351.95
2023-02-13T09:34:33.649Z,99354.38
2023-02-13T09:37:05.923Z,99335.44
2023-02-13T09:39:38.228Z,99332.74
2023-02-13T09:42:17.715Z,99334.15
2023-02-13T09:44:51.963Z,99328.77
2023-02-13T09:47:35.744Z,99320.75
2023-02-13T09:50:17.116Z,99319.58
2023-02-13T09:52:52.787Z,99305.73
2023-02-13T09:55:27.730Z,99310.78
2023-02-13T09:58:12.943Z,99302.80
2023-02-13T10:00:49.532Z,99302.56
2023-02-13T10:03:33.899Z,99309.43
2023-02-13T10:06:24.741Z,99292.95
2023-02-13T10:09:16.589Z,99289.58
2023-02-13T10:12:20.760Z,99298.29
2023-02-13T10:14:55.963Z,99297.46
2023-02-13T10:17:31.900Z,99287.38
2023-02-13T10:20:06.937Z,99288.98
2023-02-13T10:22:50.885Z,99292.65
2023-02-13T10:25:34.850Z,99280.42
2023-02-13T10:28:10.193Z,99280.48
2023-02-13T10:30:51.349Z,99283.08
2023-02-13T10:33:39.214Z,99292.52
2023-02-13T10:36:15.572Z,99285.46
2023-02-13T10:39:09.013Z,99277.60
2023-02-13T10:42:05.184Z,99271.34
2023-02-13T10:44:46.417Z,99261.61
2023-02-13T10:47:44.556Z,99260.58
2023-02-13T10:50:34.682Z,99260.50
2023-02-13T10:53:16.016Z,99250.12
2023-02-13T10:56:25.125Z,99244.98
2023-02-13T10:59:10.128Z,99240.67
2023-02-13T11:02:00.697Z,99233.77
2023-02-13T11:04:34.170Z,99229.61
2023-02-13T11:07:08.873Z,99230.58
2023-02-13T11:09:44.785Z,99221.77
2023-02-13T11:12:35.828Z,99208.84
2023-02-13T11:15:11.219Z,99208.63
2023-02-13T11:17:44.946Z,99208.25
2023-02-13T11:20:38.362Z,99206.18
2023-02-13T11:23:33.010Z,99203.28
2023-02-13T11:26:09.222Z,99199.68
2023-02-13T11:28:49.859Z,99207.61
2023-02-13T11:31:28.353Z,99198.31
2023-02-13T11:34:02.193Z,99205.51
2023-02-13T11:36:36.921Z,99197.98
2023-02-13T11:39:21.490Z,99189.42
2023-02-13T11:41:54.300Z,99191.33
2023-02-13T11:44:34.865Z,99177.58
2023-02-13T11:47:07.685Z,99170.67
2023-02-13T11:49:41.924Z,99165.47
2023-02-13T11:52:29.357Z,99166.29
2023-02-13T11:55:05.480Z,99157.59
2023-02-13T11:57:38.799Z,99156.69
2023-02-13T12:00:32.725Z,99149.67
2023-02-13T12:03:08.301Z,99153.83
2023-02-13T12:05:40.565Z,99142.46
2023-02-13T12:08:13.148Z,99142.34
2023-02-13T12:10:46.032Z,99135.45
2023-02-13T12:13:27.902Z,99131.05
2023-02-13T12:16:03.612Z,99124.97
2023-02-13T12:18:41.847Z,99130.19
2023-02-13T12:21:32.476Z,99126.89
2023-02-13T12:24:13.803Z,99127.77
2023-02-13T12:26:48.745Z,99126.94
2023-02-13T12:29:55.622Z,99127.91
2023-02-13T12:32:50.449Z,99132.86
2023-02-13T12:35:47.208Z,99115.02
2023-02-13T12:38:37.849Z,99114.08
2023-02-13T12:41:25.637Z,99118.55
2023-02-13T12:44:27.765Z,99114.20
2023-02-13T12:47:21.552Z,99112.59
2023-02-13T12:50:08.435Z,99111.66
2023-02-13T12:52:49.377Z,99109.14
2023-02-13T12:55:38.961Z,99100.47
2023-02-13T12:58:25.781Z,99095.42
2023-02-13T13:01:15.667Z,99085.11
2023-02-13T13:04:13.409Z,99076.56
2023-02-13T13:07:14.152Z,99078.29
2023-02-13T13:09:49.592Z,99067.91
2023-02-13T13:12:27.714Z,99071.31
2023-02-13T13:15:14.661Z,99070.41
2023-02-13T13:18:04.556Z,99073.08
2023-02-13T13:20:45.991Z,99073.03
2023-02-13T13:23:21.406Z,99066.95
2023-02-13T13:26:13.077Z,99071.19
2023-02-13T13:28:48.217Z,99069.59
2023-02-13T13:31:23.537Z,99063.55
2023-02-13T13:33:58.597Z,99069.70
2023-02-13T13:36:36.906Z,99067.20
2023-02-13T13:39:14.388Z,99074.92
2023-02-13T13:42:14.924Z,99067.98
2023-02-13T13:44:53.808Z,99065.52
2023-02-13T13:47:45.126Z,99058.58
2023-02-13T13:50:25.705Z,99054.27
2023-02-13T13:53:11.797Z,99043.91
2023-02-13T13:55:53.749Z,99038.66
2023-02-13T13:58:38.263Z,99048.15
2023-02-13T14:01:29.583Z,99042.03
2023-02-13T14:04:07.294Z,99043.63
2023-02-13T14:06:48.363Z,99041.91
2023-02-13T14:09:29.265Z,99035.91
2023-02-13T14:12:05.285Z,99036.86
2023-02-13T14:14:40.288Z,99030.08
2023-02-13T14:17:16.617Z,99027.53
2023-02-13T14:19:52.275Z,99027.53
2023-02-13T14:22:30.506Z,99018.13
2023-02-13T14:25:06.589Z,99011.27
2023-02-13T14:27:40.859Z,99019.07
2023-02-13T14:30:34.760Z,99012.21
2023-02-13T14:33:13.143Z,99013.94
2023-02-13T14:35:45.767Z,99009.58
2023-02-13T14:38:26.362Z,99012.13
2023-02-13T14:40:58.997Z,99005.23
2023-02-13T14:43:49.701Z,99008.77
2023-02-13T14:46:28.422Z,98992.46
2023-02-13T14:49:06.575Z,98992.42
2023-02-13T14:51:41.958Z,98994.27
2023-02-13T14:54:26.495Z,98993.28
2023-02-13T14:57:10.756Z,98983.80
2023-02-13T14:59:45.819Z,98975.18
2023-02-13T15:02:26.810Z,98982.94
2023-02-13T15:05:04.632Z,98975.14
2023-02-13T15:07:42.010Z,98965.66
2023-02-13T15:10:17.002Z,98958.67
2023-02-13T15:12:52.337Z,98957.80
2023-02-13T15:15:28.365Z,98938.84
2023-02-13T15:18:06.343Z,98931.73
2023-02-13T15:20:41.204Z,98931.77
2023-02-13T15:23:19.044Z,98916.16
2023-02-13T15:26:00.796Z,98908.41
2023-02-13T15:28:34.871Z,98912.77
2023-02-13T15:31:22.039Z,98918.06
2023-02-13T15:33:54.289Z,98912.84
2023-02-13T15:36:29.487Z,98910.99
2023-02-13T15:39:08.023Z,98912.77
2023-02-13T15:41:43.114Z,98898.95
2023-02-13T15:44:30.156Z,98885.12
2023-02-13T15:47:08.124Z,98875.59
2023-02-13T15:49:43.079Z,98872.96
2023-02-13T15:52:35.793Z,98875.72
2023-02-13T15:55:09.627Z,98878.05
2023-02-13T15:57:43.391Z,98878.14
2023-02-13T16:00:18.589Z,98875.55
2023-02-13T16:02:52.408Z,98870.38
2023-02-13T16:05:39.346Z,98865.92
2023-02-13T16:08:02.633Z,98859.75
2023-02-13T16:10:37.528Z,98854.58
2023-02-13T16:13:12.592Z,98855.94
2023-02-13T16:15:45.094Z,98856.94
2023-02-13T16:18:22.180Z,98840.69
2023-02-13T16:20:58.173Z,98848.59
2023-02-13T16:23:31.220Z,98833.92
2023-02-13T16:26:06.227Z,98828.70
2023-02-13T16:28:38.831Z,98831.97
2023-02-13T16:31:14.143Z,98819.13
2023-02-13T16:33:46.574Z,98809.59
2023-02-13T16:36:21.832Z,98815.22
2023-02-13T16:38:54.076Z,98810.27
2023-02-13T16:41:32.009Z,98790.39
2023-02-13T16:44:06.518Z,98795.52
2023-02-13T16:46:43.054Z,98789.33
2023-02-13T16:49:18.162Z,98788.43
2023-02-13T16:51:59.552Z,98787.23
2023-02-13T16:54:48.179Z,98772.84
2023-02-13T16:57:23.672Z,98764.13
2023-02-13T16:59:59.257Z,98772.70
2023-02-13T17:02:41.095Z,98764.03
2023-02-13T17:05:16.126Z,98757.89
2023-02-13T17:07:52.479Z,98765.55
2023-02-13T17:10:31.869Z,98757.64
2023-02-13T17:13:12.682Z,98751.66
2023-02-13T17:15:47.468Z,98757.30
2023-02-13T17:18:19.647Z,98761.00
2023-02-13T17:20:51.911Z,98754.19
2023-02-13T17:23:25.614Z,98749.06
2023-02-13T17:25:58.505Z,98747.15
2023-02-13T17:28:31.040Z,98742.98
2023-02-13T17:31:03.433Z,98735.22
2023-02-13T17:33:35.552Z,98734.39
2023-02-13T17:36:08.329Z,98730.73
2023-02-13T17:38:40.481Z,98717.04
2023-02-13T17:41:15.825Z,98696.33
2023-02-13T17:43:48.019Z,98706.83
2023-02-13T17:46:20.252Z,98702.47
2023-02-13T17:48:53.143Z,98700.55
2023-02-13T17:51:25.336Z,98686.22
2023-02-13T17:53:57.598Z,98683.98
2023-02-13T17:56:29.492Z,98679.58
2023-02-13T17:59:01.522Z,98678.00
2023-02-13T18:01:33.728Z,98672.88
2023-02-13T18:04:05.907Z,98674.50
2023-02-13T18:06:38.311Z,98671.14
2023-02-13T18:09:10.532Z,98666.80
2023-02-13T18:11:42.719Z,98670.08
2023-02-13T18:14:15.153Z,98659.83
2023-02-13T18:16:47.240Z,98661.62
2023-02-13T18:19:19.555Z,98664.05
2023-02-13T18:21:51.848Z,98663.38
2023-02-13T18:24:23.765Z,98657.91
2023-02-13T18:26:56.205Z,98645.27
2023-02-13T18:29:28.212Z,98640.91
2023-02-13T18:32:00.429Z,98630.56
2023-02-13T18:34:33.406Z,98629.73
2023-02-13T18:37:07.092Z,98620.30
2023-02-13T18:39:39.817Z,98613.46
2023-02-13T18:42:13.436Z,98609.09
2023-02-13T18:44:45.931Z,98607.41
2023-02-13T18:47:18.084Z,98599.45
2023-02-13T18:49:50.172Z,98596.15
2023-02-13T18:52:22.518Z,98591.03
2023-02-13T18:54:55.186Z,98586.40
2023-02-13T18:57:27.846Z,98579.82
2023-02-13T18:59:59.981Z,98571.95
2023-02-13T19:02:34.251Z,98563.42
2023-02-13T19:05:06.714Z,98570.27
2023-02-13T19:07:38.742Z,98566.83
2023-02-13T19:10:10.900Z,98564.08
2023-02-13T19:12:43.183Z,98563.16
2023-02-13T19:15:15.834Z,98562.20
2023-02-13T19:17:47.943Z,98555.17
2023-02-13T19:20:20.001Z,98553.13
2023-02-13T19:22:51.992Z,98545.59
2023-02-13T19:25:24.269Z,98531.88
2023-02-13T19:27:56.365Z,98543.00
2023-02-13T19:30:29.101Z,98540.52
2023-02-13T19:33:01.323Z,98525.97
2023-02-13T19:35:33.399Z,98521.53
2023-02-13T19:38:05.710Z,98529.23
2023-02-13T19:40:37.965Z,98527.47
2023-02-13T19:43:10.741Z,98529.52
2023-02-13T19:45:43.789Z,98529.63
2023-02-13T19:48:16.041Z,98520.13
2023-02-13T19:50:47.946Z,98522.84
2023-02-13T19:53:20.035Z,98525.97
2023-02-13T19:55:53.310Z,98522.72
2023-02-13T19:58:25.407Z,98529.63
2023-02-13T20:00:58.138Z,98526.02
2023-02-13T20:03:30.335Z,98528.61
2023-02-13T20:06:08.782Z,98531.28
2023-02-13T20:08:42.947Z,98531.88
2023-02-13T20:11:16.531Z,98533.30
2023-02-13T20:13:48.541Z,98526.34
2023-02-13T20:16:24.061Z,98525.90
2023-02-13T20:18:56.231Z,98521.81
2023-02-13T20:21:28.365Z,98528.43
2023-02-13T20:24:00.456Z,98527.46
2023-02-13T20:26:33.414Z,98518.30
2023-02-13T20:29:05.507Z,98515.66
2023-02-13T20:31:39.765Z,98513.92
2023-02-13T20:34:12.042Z,98521.58
2023-02-13T20:36:44.069Z,98528.43
2023-02-13T20:39:16.496Z,98523.84
2023-02-13T20:41:50.484Z,98523.20
2023-02-13T20:44:22.965Z,98526.61
2023-02-13T20:46:55.972Z,98528.16
2023-02-13T20:49:28.408Z,98533.61
2023-02-13T20:52:00.969Z,98528.55
2023-02-13T20:54:33.297Z,98530.16
2023-02-13T20:57:06.585Z,98536.20
2023-02-13T20:59:38.795Z,98537.49
2023-02-13T21:02:12.651Z,98538.47
2023-02-13T21:04:44.591Z,98541.17
2023-02-13T21:07:16.439Z,98527.34
2023-02-13T21:09:48.406Z,98523.96
2023-02-13T21:12:20.455Z,98518.72
2023-02-13T21:14:52.514Z,98524.92
2023-02-13T21:17:24.377Z,98528.48
2023-02-13T21:19:56.461Z,98548.23
2023-02-13T21:22:28.664Z,98553.89
2023-02-13T21:25:00.627Z,98553.89
2023-02-13T21:27:32.999Z,98544.56
2023-02-13T21:30:05.320Z,98549.09
2023-02-13T21:32:39.632Z,98553.30
2023-02-13T21:35:13.054Z,98550.88
2023-02-13T21:37:45.322Z,98545.53
2023-02-13T21:40:17.719Z,98544.87
2023-02-13T21:42:51.112Z,98544.94
2023-02-13T21:45:23.236Z,98537.40
2023-02-13T21:47:57.992Z,98543.54
2023-02-13T21:50:29.968Z,98536.80
2023-02-13T21:53:02.001Z,98546.78
2023-02-13T21:55:34.479Z,98539.33
2023-02-13T21:58:06.612Z,98545.36
2023-02-13T22:00:38.552Z,98541.98
2023-02-13T22:03:10.448Z,98551.52
2023-02-13T22:05:47.484Z,98555.83
2023-02-13T22:08:19.383Z,98545.42
2023-02-13T22:10:56.933Z,98538.14
2023-02-13T22:13:30.134Z,98551.37
2023-02-13T22:16:12.642Z,98541.01
2023-02-13T22:18:46.304Z,98550.66
2023-02-13T22:21:21.433Z,98549.80
2023-02-13T22:23:53.869Z,98567.44
2023-02-13T22:26:27.904Z,98556.17
2023-02-13T22:29:05.901Z,98556.27
2023-02-13T22:31:38.242Z,98563.48
2023-02-13T22:34:14.528Z,98561.77
2023-02-13T22:36:46.776Z,98557.52
2023-02-13T22:39:19.110Z,98554.21
2023-02-13T22:41:51.345Z,98569.54
2023-02-13T22:44:23.244Z,98554.92
2023-02-13T22:46:55.448Z,98562.58
2023-02-13T22:49:27.420Z,98563.39
2023-02-13T22:51:59.400Z,98582.97
2023-02-13T22:54:31.993Z,98570.39
2023-02-13T22:57:04.194Z,98580.58
2023-02-13T22:59:40.089Z,98576.43
2023-02-13T23:02:11.773Z,98587.38
2023-02-13T23:04:44.188Z,98578.11
2023-02-13T23:07:18.059Z,98574.44
2023-02-13T23:09:50.210Z,98576.54
2023-02-13T23:12:39.285Z,98585.16
2023-02-13T23:15:14.345Z,98577.39
2023-02-13T23:18:04.001Z,98584.25
2023-02-13T23:20:36.166Z,98585.08
2023-02-13T23:23:08.189Z,98579.19
2023-02-13T23:25:40.407Z,98584.85
2023-02-13T23:28:12.566Z,98596.03
2023-02-13T23:30:44.747Z,98578.77
2023-02-13T23:33:17.086Z,98592.41
2023-02-13T23:35:48.885Z,98590.57
2023-02-13T23:38:21.009Z,98600.02
2023-02-13T23:40:53.219Z,98594.84
2023-02-13T23:43:25.448Z,98590.57
2023-02-13T23:45:57.354Z,98601.41
2023-02-13T23:48:29.437Z,98598.99
2023-02-13T23:51:02.449Z,98600.02
2023-02-13T23:53:36.771Z,98600.61
2023-02-13T23:56:08.214Z,98597.26
2023-02-13T23:58:39.817Z,98606.16
